Time;durP1;ratioP1;P1;durP2;ratioP2;P2;SDS_P1;SDS_P2;PMS_P1;PMS_P2;Temp;Humidity;BMP_temperature;BMP_pressure;BME280_temperature;BME280_humidity;BME280_pressure;Samples;Min_cycle;Max_cycle;Signal;HPM_P1;HPM_P2
2022/11/08 00:01:35;;;;;;;45.55;31.85;;;;;;;5.97;100.00;99726.91;4858280;29;20072;-84
2022/11/08 00:04:04;;;;;;;50.67;34.17;;;;;;;6.00;100.00;99738.94;4857910;29;20093;-84
2022/11/08 00:14:43;;;;;;;45.35;33.38;;;;;;;5.84;100.00;99740.19;4857980;29;20537;-84
2022/11/08 00:17:08;;;;;;;46.28;32.65;;;;;;;5.83;100.00;99741.06;4842338;29;20116;-84
2022/11/08 00:19:34;;;;;;;50.00;32.60;;;;;;;5.82;100.00;99742.81;4857789;29;20041;-84
2022/11/08 00:21:59;;;;;;;44.78;31.05;;;;;;;5.75;100.00;99733.50;4842036;29;20049;-83
2022/11/08 00:24:25;;;;;;;45.05;32.03;;;;;;;5.73;100.00;99741.31;4857737;29;20078;-84
2022/11/08 00:26:50;;;;;;;42.60;32.30;;;;;;;5.64;100.00;99728.59;4856926;29;20044;-83
2022/11/08 00:29:16;;;;;;;46.38;31.33;;;;;;;5.68;100.00;99742.31;4854276;29;20036;-83
2022/11/08 00:31:43;;;;;;;48.42;32.90;;;;;;;5.61;100.00;99738.19;4897116;29;20457;-83
2022/11/08 00:34:08;;;;;;;38.78;29.10;;;;;;;5.53;100.00;99740.97;4895961;29;20025;-83
2022/11/08 00:36:34;;;;;;;40.50;28.40;;;;;;;5.57;100.00;99737.41;4897214;29;20088;-84
2022/11/08 00:38:59;;;;;;;38.22;27.73;;;;;;;5.56;100.00;99738.28;4895667;29;20032;-83
2022/11/08 00:41:24;;;;;;;41.85;29.45;;;;;;;5.57;100.00;99742.59;4897050;29;20029;-83
2022/11/08 00:43:50;;;;;;;38.15;28.63;;;;;;;5.49;100.00;99735.00;4895803;29;20024;-84
2022/11/08 00:46:15;;;;;;;42.88;28.60;;;;;;;5.47;100.00;99728.19;4897176;29;20627;-84
2022/11/08 00:48:40;;;;;;;40.60;29.25;;;;;;;5.46;100.00;99740.25;4895693;29;20056;-84
2022/11/08 00:51:09;;;;;;;39.38;29.08;;;;;;;5.46;100.00;99735.09;4897241;29;20111;-83
2022/11/08 00:53:38;;;;;;;40.83;29.58;;;;;;;5.39;100.00;99725.78;4897214;29;20052;-84
2022/11/08 00:56:06;;;;;;;37.97;29.13;;;;;;;5.37;100.00;99724.97;4896980;29;20036;-84
2022/11/08 00:58:31;;;;;;;40.13;30.17;;;;;;;5.40;100.00;99732.66;4897051;29;20028;-84
2022/11/08 01:00:57;;;;;;;42.97;29.58;;;;;;;5.38;100.00;99731.00;4895522;29;20429;-84
2022/11/08 01:03:23;;;;;;;43.58;31.48;;;;;;;5.30;100.00;99722.56;4896949;29;20032;-84
2022/11/08 01:05:52;;;;;;;38.67;29.40;;;;;;;5.32;100.00;99729.41;4896668;29;20035;-84
2022/11/08 01:08:20;;;;;;;36.92;28.88;;;;;;;5.29;100.00;99720.88;4895647;29;20025;-83
2022/11/08 01:10:48;;;;;;;34.15;25.73;;;;;;;5.37;100.00;99729.31;4896757;29;20039;-83
2022/11/08 01:13:14;;;;;;;36.63;28.13;;;;;;;5.31;100.00;99719.97;4880063;29;20044;-83
2022/11/08 01:15:42;;;;;;;34.88;25.48;;;;;;;5.42;100.00;99737.78;4897170;29;20032;-84
2022/11/08 01:18:10;;;;;;;33.35;25.10;;;;;;;5.34;100.00;99717.28;4895509;29;20067;-83
2022/11/08 01:20:43;;;;;;;38.78;27.02;;;;;;;5.40;100.00;99732.66;4896629;29;20041;-84
2022/11/08 01:23:09;;;;;;;36.22;26.13;;;;;;;5.34;100.00;99713.88;4895443;29;20119;-84
2022/11/08 01:25:40;;;;;;;33.00;24.90;;;;;;;5.37;100.00;99724.13;4895546;29;20033;-83
2022/11/08 01:28:06;;;;;;;29.42;23.77;;;;;;;5.34;100.00;99725.03;4895332;29;20105;-84
2022/11/08 01:30:36;;;;;;;32.28;24.35;;;;;;;5.31;100.00;99725.16;4896792;29;20053;-83
2022/11/08 01:33:01;;;;;;;31.20;23.87;;;;;;;5.30;100.00;99723.41;4896423;29;20084;-83
2022/11/08 01:35:28;;;;;;;38.08;26.55;;;;;;;5.26;100.00;99721.78;4896810;29;20028;-84
2022/11/08 01:37:54;;;;;;;32.97;25.35;;;;;;;5.32;100.00;99728.56;4895172;29;20025;-84
2022/11/08 01:40:19;;;;;;;30.02;23.55;;;;;;;5.28;100.00;99724.38;4900308;29;20020;-83
2022/11/08 01:42:44;;;;;;;33.97;23.50;;;;;;;5.24;100.00;99726.16;4900475;29;20060;-84
2022/11/08 01:45:12;;;;;;;39.80;25.52;;;;;;;5.17;100.00;99720.28;4900224;29;20456;-84
2022/11/08 01:47:38;;;;;;;32.03;24.40;;;;;;;5.20;100.00;99722.81;4898884;29;20029;-83
2022/11/08 01:50:11;;;;;;;32.45;24.83;;;;;;;5.22;100.00;99722.75;4899799;29;20029;-83
2022/11/08 01:52:45;;;;;;;29.27;22.15;;;;;;;5.21;100.00;99724.50;4900176;29;20433;-84
2022/11/08 01:55:20;;;;;;;32.50;24.17;;;;;;;5.16;100.00;99718.59;4898854;29;20020;-84
2022/11/08 01:57:48;;;;;;;34.05;24.45;;;;;;;5.18;100.00;99718.53;4899719;29;20076;-83
2022/11/08 02:00:15;;;;;;;32.13;23.23;;;;;;;5.04;100.00;99695.63;4899958;29;20347;-84
2022/11/08 02:02:43;;;;;;;38.72;26.02;;;;;;;5.13;100.00;99703.16;4899960;29;20064;-84
2022/11/08 02:05:26;;;;;;;37.08;27.38;;;;;;;5.14;100.00;99711.75;4898508;29;20029;-84
2022/11/08 02:08:00;;;;;;;32.22;23.55;;;;;;;5.17;100.00;99722.03;4899860;29;20036;-84
2022/11/08 02:10:35;;;;;;;35.00;23.70;;;;;;;5.08;100.00;99684.34;4899748;29;20021;-84
2022/11/08 02:13:01;;;;;;;39.28;27.40;;;;;;;5.21;100.00;99701.25;4899330;29;20033;-84
2022/11/08 02:15:26;;;;;;;38.88;26.70;;;;;;;5.19;100.00;99691.88;4899838;29;20024;-84
2022/11/08 02:17:53;;;;;;;42.30;26.60;;;;;;;5.30;100.00;99712.25;4898268;29;20480;-84
2022/11/08 02:20:19;;;;;;;40.55;25.50;;;;;;;5.30;100.00;99702.75;4899581;29;20546;-84
2022/11/08 02:23:20;;;;;;;40.72;26.65;;;;;;;5.35;100.00;99705.22;4898314;29;20059;-84
2022/11/08 02:25:46;;;;;;;39.72;27.92;;;;;;;5.29;100.00;99697.66;4898212;29;20032;-84
2022/11/08 02:28:11;;;;;;;43.15;28.27;;;;;;;5.34;100.00;99706.97;4898302;29;20093;-83
2022/11/08 02:30:37;;;;;;;43.95;28.35;;;;;;;5.32;100.00;99692.41;4898236;29;20064;-84
2022/11/08 02:33:17;;;;;;;70.60;37.67;;;;;;;5.42;100.00;99707.63;4899129;29;20350;-84
2022/11/08 02:35:55;;;;;;;60.92;32.70;;;;;;;5.34;100.00;99685.47;4899547;29;20035;-84
2022/11/08 02:38:22;;;;;;;75.07;37.95;;;;;;;5.37;100.00;99703.47;4898202;29;20035;-83
2022/11/08 02:40:53;;;;;;;93.43;42.08;;;;;;;5.32;100.00;99697.59;4899097;29;20033;-84
2022/11/08 02:43:19;;;;;;;74.47;37.80;;;;;;;5.31;100.00;99694.16;4899259;29;20381;-84
2022/11/08 02:45:44;;;;;;;91.07;43.97;;;;;;;5.32;100.00;99700.16;4899202;29;20088;-84
2022/11/08 02:48:10;;;;;;;112.30;48.28;;;;;;;5.33;100.00;99701.84;4897579;29;20402;-84
2022/11/08 02:50:35;;;;;;;115.82;49.05;;;;;;;5.27;100.00;99700.28;4897077;29;20376;-83
2022/11/08 02:53:02;;;;;;;74.25;36.55;;;;;;;5.30;100.00;99712.25;4898706;29;20028;-83
2022/11/08 02:55:28;;;;;;;66.93;37.50;;;;;;;5.20;100.00;99698.72;4899091;29;20028;-84
2022/11/08 02:57:53;;;;;;;61.78;34.47;;;;;;;5.22;100.00;99702.97;4898798;29;20110;-84
2022/11/08 03:00:19;;;;;;;72.80;37.75;;;;;;;5.21;100.00;99705.56;4898933;29;20040;-84
2022/11/08 03:02:44;;;;;;;74.90;37.60;;;;;;;5.15;100.00;99698.81;4898845;29;20503;-84
2022/11/08 03:05:10;;;;;;;78.13;37.97;;;;;;;5.08;100.00;99696.41;4897219;29;20043;-83
2022/11/08 03:07:35;;;;;;;65.28;37.22;;;;;;;5.11;100.00;99706.69;4897400;29;20123;-84
2022/11/08 03:10:00;;;;;;;60.30;34.95;;;;;;;5.06;100.00;99708.53;4897312;29;20085;-84
2022/11/08 03:12:26;;;;;;;53.63;32.83;;;;;;;5.09;100.00;99714.44;4898723;29;20021;-84
2022/11/08 03:14:51;;;;;;;49.17;34.15;;;;;;;5.11;100.00;99719.59;4898549;29;20507;-84
2022/11/08 03:17:16;;;;;;;45.47;32.25;;;;;;;5.09;100.00;99711.88;4898972;29;20414;-83
2022/11/08 03:19:42;;;;;;;52.10;32.58;;;;;;;5.05;100.00;99711.97;4898570;29;20111;-84
2022/11/08 03:22:07;;;;;;;57.45;34.90;;;;;;;5.00;100.00;99705.19;4898421;29;20473;-84
2022/11/08 03:24:32;;;;;;;65.20;36.40;;;;;;;5.00;100.00;99706.91;4897247;29;20029;-84
2022/11/08 03:26:58;;;;;;;68.30;38.30;;;;;;;4.98;100.00;99706.97;4898264;29;20067;-83
2022/11/08 03:29:24;;;;;;;62.80;37.53;;;;;;;4.93;100.00;99702.78;4897035;29;20029;-84
2022/11/08 03:31:49;;;;;;;55.60;36.97;;;;;;;4.91;100.00;99697.66;4895651;29;20100;-83
2022/11/08 03:34:15;;;;;;;52.08;33.88;;;;;;;4.99;100.00;99721.56;4895644;29;20077;-83
2022/11/08 03:36:40;;;;;;;53.78;32.90;;;;;;;4.94;100.00;99717.41;4880053;29;20152;-83
2022/11/08 03:39:06;;;;;;;48.28;33.83;;;;;;;4.91;100.00;99699.38;4895651;29;20032;-83
2022/11/08 03:41:31;;;;;;;43.50;30.15;;;;;;;4.93;100.00;99720.84;4895814;29;20072;-83
2022/11/08 03:43:56;;;;;;;71.32;44.42;;;;;;;4.89;100.00;99714.06;4895495;29;20032;-84
2022/11/08 03:46:22;;;;;;;81.57;46.85;;;;;;;4.92;100.00;99713.97;4879913;29;20099;-84
2022/11/08 03:48:47;;;;;;;91.90;50.92;;;;;;;4.91;100.00;99720.88;4895548;29;20557;-83
2022/11/08 03:51:12;;;;;;;110.45;59.40;;;;;;;4.89;100.00;99720.09;4879421;29;20123;-84
2022/11/08 03:53:38;;;;;;;97.05;53.08;;;;;;;4.83;100.00;99701.28;4879844;29;20056;-83
2022/11/08 03:56:03;;;;;;;87.35;46.55;;;;;;;4.90;100.00;99706.28;4895322;29;20078;-83
2022/11/08 03:58:29;;;;;;;93.85;49.60;;;;;;;4.90;100.00;99706.28;4895326;29;20032;-83
2022/11/08 04:00:54;;;;;;;109.07;56.28;;;;;;;4.83;100.00;99698.72;4895141;29;20129;-83
2022/11/08 04:03:19;;;;;;;123.40;59.00;;;;;;;4.84;100.00;99708.16;4890560;29;20032;-83
2022/11/08 04:05:45;;;;;;;111.80;56.45;;;;;;;4.84;100.00;99711.56;4897922;29;20024;-84
2022/11/08 04:08:10;;;;;;;96.85;50.20;;;;;;;4.80;100.00;99703.94;4896313;29;20020;-84
2022/11/08 04:10:36;;;;;;;106.40;50.95;;;;;;;4.77;100.00;99704.88;4896546;29;20036;-83
2022/11/08 04:15:50;;;;;;;120.43;57.20;;;;;;;4.81;100.00;99710.81;4897501;29;20169;-82
2022/11/08 04:21:17;;;;;;;103.65;51.30;;;;;;;4.78;100.00;99706.56;4897021;29;20088;-82
2022/11/08 04:23:44;;;;;;;96.50;50.80;;;;;;;4.76;100.00;99705.72;4897369;29;20028;-82
2022/11/08 04:26:10;;;;;;;96.45;51.40;;;;;;;4.81;100.00;99710.81;4897080;29;20032;-82
2022/11/08 04:28:37;;;;;;;93.35;48.60;;;;;;;4.74;100.00;99703.19;4897270;29;20017;-82
2022/11/08 04:31:06;;;;;;;90.93;49.97;;;;;;;4.79;100.00;99715.16;4897187;29;20099;-82
2022/11/08 04:33:32;;;;;;;83.07;47.08;;;;;;;4.74;100.00;99712.66;4897360;29;20599;-82
2022/11/08 04:36:05;;;;;;;105.30;52.80;;;;;;;4.71;100.00;99704.97;4895944;29;20028;-82
2022/11/08 04:38:31;;;;;;;104.13;53.42;;;;;;;4.75;100.00;99706.63;4897255;29;20032;-82
2022/11/08 04:41:11;;;;;;;98.82;48.53;;;;;;;4.71;100.00;99700.66;4895633;29;20024;-82
2022/11/08 04:43:37;;;;;;;88.07;46.15;;;;;;;4.72;100.00;99709.28;4896036;29;20372;-82
2022/11/08 04:46:10;;;;;;;88.82;46.75;;;;;;;4.65;100.00;99699.97;4895640;29;20056;-82
2022/11/08 04:48:35;;;;;;;84.55;45.53;;;;;;;4.68;100.00;99711.09;4897137;29;20052;-82
2022/11/08 04:51:15;;;;;;;95.97;47.78;;;;;;;4.63;100.00;99689.66;4896731;29;20060;-82
2022/11/08 04:53:41;;;;;;;84.43;44.88;;;;;;;4.65;100.00;99702.56;4897009;29;20584;-82
2022/11/08 04:56:11;;;;;;;80.78;42.17;;;;;;;4.67;100.00;99705.94;4897141;29;20107;-82
2022/11/08 04:58:46;;;;;;;78.18;41.90;;;;;;;4.65;100.00;99703.41;4895649;29;20116;-82
2022/11/08 05:01:15;;;;;;;73.18;39.92;;;;;;;4.65;100.00;99702.56;4895350;29;20063;-82
2022/11/08 05:03:40;;;;;;;79.25;42.47;;;;;;;4.65;100.00;99705.97;4895386;29;20029;-82
2022/11/08 05:06:11;;;;;;;72.22;39.15;;;;;;;4.60;100.00;99696.66;4895419;29;20061;-82
2022/11/08 05:08:37;;;;;;;;;;;;;;;4.65;100.00;99694.81;4895951;29;20025;-82
2022/11/08 05:11:08;;;;;;;60.47;36.08;;;;;;;4.48;100.00;99674.53;4896687;29;20240;-82
2022/11/08 05:13:34;;;;;;;61.72;37.17;;;;;;;4.55;100.00;99689.00;4896343;29;20032;-82
2022/11/08 05:16:02;;;;;;;61.85;37.05;;;;;;;4.54;100.00;99695.03;4900300;29;20068;-83
2022/11/08 05:18:28;;;;;;;61.65;36.80;;;;;;;4.59;100.00;99700.09;4900448;29;20036;-82
2022/11/08 05:23:43;;;;;;;79.35;49.05;;;;;;;4.61;100.00;99706.09;4900757;29;20052;-82
2022/11/08 05:26:09;;;;;;;54.58;36.97;;;;;;;4.62;100.00;99706.03;4900642;29;20136;-82
2022/11/08 05:28:34;;;;;;;43.88;31.13;;;;;;;4.64;100.00;99706.88;4900490;29;20076;-82
2022/11/08 05:31:00;;;;;;;45.55;31.52;;;;;;;4.61;100.00;99696.59;4898850;29;20036;-82
2022/11/08 05:33:25;;;;;;;48.08;33.40;;;;;;;4.54;100.00;99689.03;4898990;29;20516;-82
2022/11/08 05:35:51;;;;;;;50.30;34.95;;;;;;;4.56;100.00;99698.44;4900352;29;20056;-82
2022/11/08 05:38:17;;;;;;;45.75;34.08;;;;;;;4.51;100.00;99679.66;4898708;29;20080;-82
2022/11/08 05:40:43;;;;;;;37.15;28.40;;;;;;;4.65;100.00;99703.41;4900613;29;20043;-82
2022/11/08 05:43:08;;;;;;;48.72;31.77;;;;;;;4.65;100.00;99697.41;4898702;29;20024;-82
2022/11/08 05:45:34;;;;;;;41.80;29.27;;;;;;;4.59;100.00;99689.78;4900150;29;20388;-82
2022/11/08 05:48:02;;;;;;;37.92;27.92;;;;;;;4.63;100.00;99694.84;4900680;29;20033;-82
2022/11/08 05:50:35;;;;;;;35.38;25.33;;;;;;;4.59;100.00;99690.63;4898849;29;20035;-82
2022/11/08 05:53:00;;;;;;;32.88;24.23;;;;;;;4.62;100.00;99700.88;4899920;29;20035;-82
2022/11/08 05:55:26;;;;;;;37.25;26.80;;;;;;;4.61;100.00;99695.75;4898734;29;20029;-82
2022/11/08 05:57:52;;;;;;;34.85;27.75;;;;;;;4.56;100.00;99697.59;4899993;29;20060;-82
2022/11/08 06:00:18;;;;;;;40.47;29.00;;;;;;;4.65;100.00;99705.97;4899956;29;20025;-82
2022/11/08 06:02:43;;;;;;;34.60;24.55;;;;;;;4.64;100.00;99704.28;4900004;29;20032;-82
2022/11/08 06:05:09;;;;;;;35.08;24.95;;;;;;;4.67;100.00;99713.69;4899930;29;20032;-82
2022/11/08 06:07:35;;;;;;;49.30;31.05;;;;;;;4.73;100.00;99710.97;4899805;29;20066;-82
2022/11/08 06:10:00;;;;;;;48.60;29.80;;;;;;;4.70;100.00;99703.28;4899685;29;20032;-82
2022/11/08 06:12:26;;;;;;;40.97;26.85;;;;;;;4.68;100.00;99699.91;4899668;29;20025;-82
2022/11/08 06:14:51;;;;;;;35.92;26.15;;;;;;;4.77;100.00;99707.44;4899626;29;20032;-82
2022/11/08 06:17:17;;;;;;;44.53;30.05;;;;;;;4.72;100.00;99698.97;4899589;29;20481;-82
2022/11/08 06:19:42;;;;;;;41.28;28.92;;;;;;;4.84;100.00;99718.47;4899701;29;20040;-82
2022/11/08 06:22:07;;;;;;;42.72;29.65;;;;;;;4.80;100.00;99704.78;4899258;29;20173;-82
2022/11/08 06:24:33;;;;;;;43.65;30.67;;;;;;;4.90;100.00;99716.63;4898728;29;20028;-82
2022/11/08 06:26:58;;;;;;;46.30;29.67;;;;;;;4.98;100.00;99714.72;4897624;29;20107;-82
2022/11/08 06:29:23;;;;;;;41.25;28.45;;;;;;;5.23;100.00;99722.75;4897841;29;20028;-82
2022/11/08 06:31:49;;;;;;;43.10;27.20;;;;;;;5.43;100.00;99721.38;4899471;29;20028;-82
2022/11/08 06:34:14;;;;;;;38.58;26.98;;;;;;;5.63;100.00;99716.59;4898988;29;20412;-83
2022/11/08 06:36:40;;;;;;;35.22;25.40;;;;;;;5.89;100.00;99722.81;4899283;29;20029;-82
2022/11/08 06:39:05;;;;;;;35.28;26.30;;;;;;;6.15;100.00;99725.59;4898987;29;20130;-83
2022/11/08 06:41:31;;;;;;;34.47;25.13;;;;;;;6.45;100.00;99713.53;4899100;29;20068;-83
2022/11/08 06:43:57;;;;;;;32.55;24.48;;;;;;;7.11;100.00;99719.31;4899012;29;20369;-83
2022/11/08 06:46:23;;;;;;;32.47;23.63;;;;;;;7.56;100.00;99730.84;4897723;29;20037;-82
2022/11/08 06:48:49;;;;;;;31.05;23.83;;;;;;;7.78;100.00;99729.22;4897852;29;20096;-83
2022/11/08 06:51:14;;;;;;;35.40;22.60;;;;;;;8.12;100.00;99720.28;4897481;29;20453;-83
2022/11/08 06:53:39;;;;;;;30.92;21.90;;;;;;;8.68;100.00;99726.03;4897744;29;20021;-83
2022/11/08 06:56:05;;;;;;;24.88;17.75;;;;;;;8.92;100.00;99731.19;4897286;29;20115;-83
2022/11/08 06:58:31;;;;;;;19.75;16.45;;;;;;;9.01;100.00;99736.03;4898843;29;20124;-83
2022/11/08 07:00:56;;;;;;;23.27;17.00;;;;;;;8.96;100.00;99733.59;4897658;29;20032;-83
2022/11/08 07:03:22;;;;;;;18.85;14.80;;;;;;;8.97;100.00;99719.75;4897517;29;20020;-83
2022/11/08 07:05:47;;;;;;;21.33;15.73;;;;;;;9.15;100.00;99738.13;4898789;29;20410;-82
2022/11/08 07:08:13;;;;;;;25.55;22.20;;;;;;;9.20;100.00;99746.56;4898581;29;20107;-83
2022/11/08 07:10:39;;;;;;;30.90;24.13;;;;;;;9.26;100.00;99735.91;4897298;29;20092;-83
2022/11/08 07:13:12;;;;;;;30.17;26.90;;;;;;;9.32;100.00;99733.09;4898200;29;20481;-83
2022/11/08 07:15:38;;;;;;;31.73;25.40;;;;;;;9.39;100.00;99725.88;4898674;29;20024;-83
2022/11/08 07:18:07;;;;;;;28.20;24.10;;;;;;;9.47;100.00;99723.81;4898602;29;20084;-83
2022/11/08 07:20:33;;;;;;;23.27;19.10;;;;;;;9.52;100.00;99718.41;4898453;29;20036;-83
2022/11/08 07:22:58;;;;;;;22.35;17.92;;;;;;;9.64;100.00;99723.94;4898282;29;20393;-83
2022/11/08 07:25:25;;;;;;;22.73;16.55;;;;;;;9.78;100.00;99725.16;4896682;29;20096;-83
2022/11/08 07:27:54;;;;;;;22.95;17.52;;;;;;;9.94;100.00;99721.84;4897220;29;20024;-83
2022/11/08 07:30:20;;;;;;;20.48;13.65;;;;;;;9.92;100.00;99715.84;4896935;29;20067;-83
2022/11/08 07:32:45;;;;;;;18.92;13.98;;;;;;;10.02;100.00;99716.28;4898197;29;20426;-83
2022/11/08 07:35:10;;;;;;;16.77;12.10;;;;;;;10.20;100.00;99727.69;4896725;29;20029;-83
2022/11/08 07:37:36;;;;;;;15.25;11.32;;;;;;;10.26;100.00;99724.81;4896430;29;20036;-83
2022/11/08 07:40:01;;;;;;;14.85;11.15;;;;;;;10.40;100.00;99713.78;4896756;29;20024;-83
2022/11/08 07:42:26;;;;;;;16.20;11.95;;;;;;;10.50;100.00;99715.06;4896669;29;20428;-83
2022/11/08 07:44:52;;;;;;;14.93;11.05;;;;;;;10.57;100.00;99716.47;4898181;29;20529;-83
2022/11/08 07:47:17;;;;;;;14.43;10.65;;;;;;;10.48;100.00;99722.94;4897940;29;20029;-83
2022/11/08 07:49:42;;;;;;;16.13;10.70;;;;;;;10.40;100.00;99721.59;4898045;29;20028;-83
2022/11/08 07:52:08;;;;;;;14.18;10.48;;;;;;;10.37;100.00;99724.34;4880759;29;20029;-83
2022/11/08 07:54:33;;;;;;;13.70;10.60;;;;;;;10.36;100.00;99714.84;4896622;29;20350;-83
2022/11/08 07:56:59;;;;;;;14.30;11.10;;;;;;;10.36;100.00;99728.69;4896723;29;20029;-83
2022/11/08 07:59:24;;;;;;;13.43;10.30;;;;;;;10.26;100.00;99714.41;4896400;29;20119;-83
2022/11/08 08:01:49;;;;;;;14.93;9.98;;;;;;;10.21;100.00;99732.81;4897919;29;20071;-83
2022/11/08 08:04:15;;;;;;;13.85;10.18;;;;;;;10.11;100.00;99728.91;4897490;29;20099;-83
2022/11/08 08:06:40;;;;;;;12.35;9.50;;;;;;;9.99;100.00;99722.47;4897745;29;20028;-83
2022/11/08 08:09:05;;;;;;;15.57;10.18;;;;;;;10.01;100.00;99735.41;4897849;29;20076;-83
2022/11/08 08:11:31;;;;;;;12.23;9.00;;;;;;;9.98;100.00;99735.53;4897520;29;20036;-83
2022/11/08 08:13:56;;;;;;;12.32;9.65;;;;;;;10.02;100.00;99742.31;4896460;29;20028;-83
2022/11/08 08:16:21;;;;;;;11.93;9.80;;;;;;;10.03;100.00;99733.59;4897529;29;20521;-83
2022/11/08 08:18:50;;;;;;;16.35;10.60;;;;;;;9.94;100.00;99731.38;4896340;29;20028;-83
2022/11/08 08:21:15;;;;;;;13.63;9.57;;;;;;;9.96;100.00;99735.63;4897191;29;20048;-83
2022/11/08 08:23:41;;;;;;;17.67;10.50;;;;;;;9.95;100.00;99746.94;4880310;29;20368;-83
2022/11/08 08:26:06;;;;;;;13.32;10.25;;;;;;;9.93;100.00;99738.34;4897222;29;20100;-83
2022/11/08 08:28:32;;;;;;;17.15;10.45;;;;;;;9.89;100.00;99728.97;4897307;29;20028;-83
2022/11/08 08:30:57;;;;;;;16.42;10.52;;;;;;;9.99;100.00;99740.69;4897242;29;20017;-83
2022/11/08 08:33:22;;;;;;;13.18;9.23;;;;;;;10.10;100.00;99739.38;4897070;29;20476;-83
2022/11/08 08:35:50;;;;;;;14.00;9.95;;;;;;;10.12;100.00;99725.41;4897455;29;20024;-83
2022/11/08 08:38:15;;;;;;;14.02;10.30;;;;;;;10.35;100.00;99734.81;4895564;29;20479;-83
2022/11/08 08:40:41;;;;;;;17.55;11.18;;;;;;;10.48;100.00;99735.97;4896653;29;20067;-84
2022/11/08 08:43:06;;;;;;;15.50;11.18;;;;;;;10.48;100.00;99729.91;4895767;29;20474;-84
2022/11/08 08:45:33;;;;;;;14.82;9.77;;;;;;;10.47;100.00;99715.22;4896663;29;20052;-83
2022/11/08 08:47:59;;;;;;;17.90;10.55;;;;;;;10.56;100.00;99733.03;4894329;29;20128;-83
2022/11/08 08:50:27;;;;;;;13.98;9.93;;;;;;;10.58;100.00;99725.16;4887974;29;20025;-83
2022/11/08 08:53:00;;;;;;;13.90;10.70;;;;;;;10.67;100.00;99737.75;4894242;29;20032;-83
2022/11/08 08:55:26;;;;;;;20.08;11.02;;;;;;;10.56;100.00;99717.38;4880713;29;20096;-83
2022/11/08 08:57:51;;;;;;;15.05;10.85;;;;;;;10.67;100.00;99720.38;4878397;29;20036;-83
2022/11/08 09:00:18;;;;;;;16.52;10.88;;;;;;;10.70;100.00;99724.56;4876871;29;20017;-83
2022/11/08 09:02:44;;;;;;;15.48;11.73;;;;;;;10.67;100.00;99727.34;4876803;29;20481;-83
2022/11/08 09:05:12;;;;;;;17.77;11.88;;;;;;;10.65;100.00;99730.00;4885831;29;20036;-83
2022/11/08 09:07:38;;;;;;;18.20;11.45;;;;;;;10.64;100.00;99727.47;4896817;29;20028;-83
2022/11/08 09:10:05;;;;;;;18.75;11.35;;;;;;;10.62;100.00;99726.69;4895792;29;20385;-83
2022/11/08 09:12:31;;;;;;;18.92;11.20;;;;;;;10.53;100.00;99711.47;4895335;29;20448;-83
2022/11/08 09:14:57;;;;;;;15.98;11.07;;;;;;;10.47;100.00;99725.63;4895442;29;20025;-84
2022/11/08 09:17:23;;;;;;;16.77;11.95;;;;;;;10.38;100.00;99726.88;4895311;29;20225;-84
2022/11/08 09:19:48;;;;;;;17.10;12.02;;;;;;;10.44;100.00;99733.56;4895430;29;20040;-83
2022/11/08 09:22:13;;;;;;;15.73;12.02;;;;;;;10.40;100.00;99725.03;4896456;29;20052;-83
2022/11/08 09:24:39;;;;;;;21.58;14.75;;;;;;;10.43;100.00;99722.31;4897016;29;20108;-84
2022/11/08 09:27:04;;;;;;;17.08;12.63;;;;;;;10.46;100.00;99734.34;4895514;29;20066;-84
2022/11/08 09:29:30;;;;;;;14.48;11.95;;;;;;;10.54;100.00;99715.78;4896580;29;20028;-83
2022/11/08 09:31:55;;;;;;;18.83;13.57;;;;;;;10.62;100.00;99724.06;4896818;29;20057;-83
2022/11/08 09:34:21;;;;;;;17.50;11.73;;;;;;;10.68;100.00;99719.44;4896505;29;20025;-83
2022/11/08 09:36:46;;;;;;;15.10;11.77;;;;;;;10.56;100.00;99699.16;4896693;29;20024;-83
2022/11/08 09:39:12;;;;;;;16.00;11.38;;;;;;;10.72;100.00;99721.00;4896670;29;20048;-83
2022/11/08 09:41:49;;;;;;;22.65;11.80;;;;;;;10.74;100.00;99724.38;4896552;29;20384;-83
2022/11/08 09:44:28;;;;;;;14.85;10.77;;;;;;;10.74;100.00;99727.00;4896353;29;20024;-83
2022/11/08 09:47:03;;;;;;;19.13;11.40;;;;;;;10.76;100.00;99721.69;4896570;29;20488;-83
2022/11/08 09:49:41;;;;;;;16.77;11.30;;;;;;;10.91;100.00;99718.38;4896463;29;20029;-83
2022/11/08 09:52:14;;;;;;;15.63;10.98;;;;;;;10.99;100.00;99708.41;4896615;29;20021;-83
2022/11/08 09:54:46;;;;;;;15.88;11.23;;;;;;;11.09;100.00;99716.66;4895271;29;20473;-83
2022/11/08 09:57:38;;;;;;;22.23;11.73;;;;;;;11.18;100.00;99707.56;4896458;29;20025;-83
2022/11/08 10:00:05;;;;;;;14.60;10.82;;;;;;;11.19;100.00;99704.03;4898311;29;20042;-83
2022/11/08 10:02:32;;;;;;;13.48;9.98;;;;;;;11.17;100.00;99704.13;4900197;29;20048;-83
2022/11/08 10:05:01;;;;;;;18.00;11.13;;;;;;;11.13;100.00;99707.78;4899759;29;20413;-83
2022/11/08 10:07:34;;;;;;;15.75;10.30;;;;;;;11.19;100.00;99704.88;4898308;29;20035;-83
2022/11/08 10:10:26;;;;;;;14.40;9.98;;;;;;;11.21;100.00;99700.44;4898393;29;20030;-83
2022/11/08 10:13:27;;;;;;;15.43;10.45;;;;;;;11.25;100.00;99703.75;4899856;29;20032;-83
2022/11/08 10:15:57;;;;;;;;;;;;;;;11.40;100.00;99691.72;4900108;29;20025;-83
2022/11/08 10:18:30;;;;;;;16.77;10.68;;;;;;;11.50;100.00;99703.38;4898065;29;19908;-83
2022/11/08 10:21:09;;;;;;;15.75;10.77;;;;;;;11.50;100.00;99700.75;4899529;29;20029;-83
2022/11/08 10:24:02;;;;;;;14.93;10.05;;;;;;;11.53;100.00;99703.22;4899267;29;20037;-83
2022/11/08 10:26:44;;;;;;;17.75;10.95;;;;;;;11.57;100.00;99690.88;4899274;29;20024;-83
2022/11/08 10:29:41;;;;;;;16.73;10.30;;;;;;;11.51;100.00;99673.78;4899660;29;20047;-83
2022/11/08 10:32:18;;;;;;;17.13;11.50;;;;;;;11.53;100.00;99678.91;4898940;29;20095;-83
2022/11/08 10:34:53;;;;;;;20.08;10.63;;;;;;;11.61;100.00;99674.16;4898110;29;20041;-83
2022/11/08 10:37:20;;;;;;;14.75;10.15;;;;;;;11.63;100.00;99673.16;4897660;29;20544;-83
2022/11/08 10:40:04;;;;;;;14.98;10.15;;;;;;;11.59;100.00;99665.56;4899342;29;20028;-83
2022/11/08 10:42:51;;;;;;;16.02;10.20;;;;;;;11.70;100.00;99669.31;4897783;29;20059;-83
2022/11/08 10:45:17;;;;;;;13.18;9.35;;;;;;;11.72;100.00;99674.47;4899146;29;20062;-83
2022/11/08 10:47:45;;;;;;;17.00;9.73;;;;;;;11.61;100.00;99648.91;4899171;29;20080;-83
2022/11/08 10:50:19;;;;;;;16.50;10.35;;;;;;;11.74;100.00;99647.34;4898082;29;20040;-84
2022/11/08 10:53:02;;;;;;;16.20;9.88;;;;;;;11.79;100.00;99656.72;4898993;29;20020;-83
2022/11/08 10:55:29;;;;;;;17.63;9.20;;;;;;;11.85;100.00;99662.50;4897747;29;20044;-83
2022/11/08 10:57:55;;;;;;;13.63;9.85;;;;;;;11.91;100.00;99656.94;4898964;29;20032;-83
2022/11/08 11:00:21;;;;;;;16.52;9.63;;;;;;;11.98;100.00;99654.88;4897620;29;20024;-83
2022/11/08 11:02:55;;;;;;;18.48;10.02;;;;;;;12.01;100.00;99656.47;4897752;29;20453;-83
2022/11/08 11:05:31;;;;;;;19.67;10.00;;;;;;;12.06;100.00;99655.31;4897398;29;20040;-83
2022/11/08 11:08:02;;;;;;;18.33;8.75;;;;;;;12.14;100.00;99645.31;4885488;29;20051;-83
2022/11/08 11:10:37;;;;;;;12.55;8.60;;;;;;;12.13;100.00;99640.16;4879527;29;20040;-83
2022/11/08 11:13:22;;;;;;;17.63;8.40;;;;;;;12.24;100.00;99641.28;4878237;29;20035;-83
2022/11/08 11:15:58;;;;;;;13.27;8.70;;;;;;;12.28;100.00;99633.28;4878605;29;20044;-83
2022/11/08 11:18:31;;;;;;;10.40;7.80;;;;;;;12.39;100.00;99649.22;4879590;29;20084;-83
2022/11/08 11:21:15;;;;;;;12.57;7.82;;;;;;;12.43;100.00;99635.06;4880022;29;20377;-83
2022/11/08 11:23:44;;;;;;;12.95;7.40;;;;;;;12.53;99.82;99633.63;4878362;29;20029;-83
2022/11/08 11:26:16;;;;;;;12.10;6.93;;;;;;;12.48;99.88;99620.00;4879823;29;20613;-83
2022/11/08 11:28:57;;;;;;;11.43;5.45;;;;;;;12.55;99.29;99626.53;4880237;29;20037;-83
2022/11/08 11:31:23;;;;;;;11.13;5.00;;;;;;;12.61;99.62;99620.16;4879067;29;20053;-83
2022/11/08 11:33:48;;;;;;;9.80;5.25;;;;;;;12.64;98.01;99619.97;4878076;29;20414;-83
2022/11/08 11:36:21;;;;;;;7.55;4.55;;;;;;;12.71;97.80;99637.84;4879296;29;20077;-83
2022/11/08 11:38:59;;;;;;;7.15;4.13;;;;;;;12.72;96.85;99634.31;4879538;29;20028;-83